Galveston, Texas
Current Conditions -  °F | °C
As of 1:52 PM on Saturday 25 Oct 2014 (Local Time) from KGLS Reporting Station
Clear Clear  
Wind Chill: 77°   Ceiling: Unl
Heat Index: 79°   Visibility: 10mi
Dew Point: 58°   Wind: 6mph
Humidity: 52%   Direction: 100°E
Pressure: 30.14"   Gusts: NA
Location:  29.3°N, 94.81°W
Report Text: KGLS 251852Z 10005KT 10SM CLR 25/14 A3014 RMK AO2 SLP206 T02500144
Loading
Personal Weather Stations






























Interactive Weather Map
Tropical Storm Tracking
New forecast layout! Learn more

10-Day Weather Forecast

Advertisements
Track Severe Weather on mobile